Lodgepole, SD (57640)

8:44 PM MST on February 12, 2016 (GMT -0700)
Hettinger Municipal | | Change Station
CLOSE
Current Station
Airport
Location: Hettinger,
Elevation: 2703 ft
Nearby Weather Stations
Active Advisory: Winter Weather Advisory

Elev 2703 ft 46.01 °N, 102.66 °W | Updated 14 minutes ago

Snow
Snow
11 °F
Feels Like -5 °F
N
15
Wind Variable Wind from SE

Today
High -- | Low -- °F
--% Chance of Precip.
Yesterday
High -- | Low -- °F
Precip. -- in
Pressure 30.38 in
Visibility 1.8 miles
Clouds Overcast 2700 ft
Windchill -5 °F
Dew Point 5 °F
Humidity 77%
Rainfall 0.00 in
Snow Depth Not available.
6:58 AM 5:12 PM
Waxing Crescent, 26% visible
SPECI KHEI 130330Z AUTO 13013KT 1 3/4SM -SN OVC027 M12/M15 A3038 RMK AO2 P0000 T11171150
Pressure 30.38 in
Visibility 1.8 miles
Clouds Overcast 2700 ft
Windchill -5 °F
Dew Point 5 °F
Humidity 77%
Rainfall 0.00 in
Snow Depth Not available.
6:58 AM 5:12 PM
Waxing Crescent, 26% visible
SPECI KHEI 130330Z AUTO 13013KT 1 3/4SM -SN OVC027 M12/M15 A3038 RMK AO2 P0000 T11171150

10-Day Weather Forecast

Almanac

Astronomy

Feb. 12, 2016 Rise Set
Actual Time
Civil Twilight
Nautical Twilight
Astronomical Twilight
Moon
Length of Visible Light
Length of Day
Tomorrow will be .
, % of the Moon is Illuminated

Today's Extremes

State Highs State Lows

Community

WunderPhotos

Upload Photos

1,892,492 photos uploaded!

WunderBlog® & News

Nearby

Air Quality

  Air Quality AQ Index Pollutant
Not available.

Snow Depth

Station Depth Elevation

Earthquake Activity

City Distance Mag. Time & Date
Minimum magnitude displayed is 2.5.

Coastal Water Temperatures

Place Temperature

Stations

Nearby Weather Stations

Station Location Temp. Windchill Dew Point Humidity Wind Precip. Elev Updated Type
                   

Watches & Warnings

Winter Weather Advisory
Issued: 8:07 PM MST Feb. 12, 2016 – National Weather Service

... Winter Weather Advisory remains in effect from 8 am to 8 PM
MST Saturday...

A Winter Weather Advisory remains in effect from 8 am to 8 PM MST
Saturday.

* Timing... freezing rain and snow will develop late in the
morning... persisting through the afternoon... and tapering off
in the evening.

* Main hazard... ice accumulations of a trace to a tenth of an
inch are expected... with snowfall amounts up to 2 inches.

* Impacts... hazardous travel conditions can be expected.

Precautionary/preparedness actions...

A Winter Weather Advisory means snow and freezing precipitation
will create hazardous conditions. Use caution when outdoors or
traveling.